Chopinzinho, Brazil
Current Conditions -  °F | °C
As of 6:00 PM on Sunday 23 Nov 2014 (Local Time) from SBCH Reporting Station
Clear Clear  
Wind Chill: 82°   Ceiling: Unl
Heat Index: 85°   Visibility: 6mi
Dew Point: 66°   Wind: 7mph
Humidity: 58%   Direction: 280°W
Pressure: 29.91"   Gusts: NA
Location:  25.86°S, 52.52°W
Report Text: SBCH 232000Z 28006KT CAVOK 28/19 Q1013
Loading
Personal Weather Stations






























Interactive Weather Map New forecast layout! Learn more

10-Day Weather Forecast

Advertisements
Track Severe Weather on mobile